createdAt,value
2019-02-19T00:02:39.893Z,8.00
2019-02-19T00:05:43.328Z,8.00
2019-02-19T00:08:46.745Z,8.00
2019-02-19T00:11:50.181Z,8.10
2019-02-19T00:14:53.602Z,8.00
2019-02-19T00:17:57.046Z,8.00
2019-02-19T00:21:00.461Z,8.00
2019-02-19T00:24:03.893Z,7.90
2019-02-19T00:27:07.324Z,7.80
2019-02-19T00:30:10.804Z,7.80
2019-02-19T00:33:14.241Z,7.80
2019-02-19T00:36:17.680Z,7.80
2019-02-19T00:39:21.121Z,7.80
2019-02-19T00:42:24.542Z,7.80
2019-02-19T00:45:27.963Z,7.70
2019-02-19T00:48:31.384Z,7.80
2019-02-19T00:51:34.811Z,7.70
2019-02-19T00:54:38.225Z,7.70
2019-02-19T00:57:41.659Z,7.70
2019-02-19T01:00:45.105Z,7.70
2019-02-19T01:03:48.520Z,7.70
2019-02-19T01:06:51.991Z,7.60
2019-02-19T01:09:55.501Z,7.50
2019-02-19T01:12:58.975Z,7.50
2019-02-19T01:16:02.413Z,7.50
2019-02-19T01:19:05.858Z,7.40
2019-02-19T01:22:09.563Z,7.40
2019-02-19T01:25:12.968Z,7.40
2019-02-19T01:28:16.404Z,7.30
2019-02-19T01:31:19.828Z,7.40
2019-02-19T01:34:23.265Z,7.30
2019-02-19T01:37:26.680Z,7.30
2019-02-19T01:40:30.107Z,7.30
2019-02-19T01:43:33.549Z,7.30
2019-02-19T01:46:36.957Z,7.40
2019-02-19T01:49:40.424Z,7.40
2019-02-19T01:52:43.833Z,7.50
2019-02-19T01:55:47.260Z,7.50
2019-02-19T01:58:50.692Z,7.50
2019-02-19T02:01:54.110Z,7.40
2019-02-19T02:04:57.544Z,7.40
2019-02-19T02:08:00.958Z,7.40
2019-02-19T02:11:04.384Z,7.30
2019-02-19T02:14:07.795Z,7.30
2019-02-19T02:17:11.228Z,7.20
2019-02-19T02:20:14.672Z,7.20
2019-02-19T02:23:18.091Z,7.20
2019-02-19T02:26:21.507Z,7.20
2019-02-19T02:29:24.947Z,7.20
2019-02-19T02:32:28.367Z,7.20
2019-02-19T02:35:31.795Z,7.10
2019-02-19T02:38:35.236Z,7.00
2019-02-19T02:41:38.658Z,7.00
2019-02-19T02:44:42.089Z,6.90
2019-02-19T02:47:45.508Z,6.90
2019-02-19T02:50:48.965Z,6.80
2019-02-19T02:53:52.404Z,6.70
2019-02-19T02:56:55.811Z,6.70
2019-02-19T02:59:59.249Z,6.70
2019-02-19T03:03:02.685Z,6.70
2019-02-19T03:06:07.769Z,6.60
2019-02-19T03:09:11.183Z,6.60
2019-02-19T03:12:14.623Z,6.60
2019-02-19T03:15:18.097Z,6.60
2019-02-19T03:18:21.540Z,6.60
2019-02-19T03:21:24.980Z,6.50
2019-02-19T03:24:28.473Z,6.40
2019-02-19T03:27:31.884Z,6.40
2019-02-19T03:30:35.326Z,6.40
2019-02-19T03:33:38.749Z,6.40
2019-02-19T03:36:42.173Z,6.40
2019-02-19T03:39:45.588Z,6.30
2019-02-19T03:42:49.016Z,6.30
2019-02-19T03:45:52.456Z,6.30
2019-02-19T03:48:55.871Z,6.20
2019-02-19T03:51:59.318Z,6.20
2019-02-19T03:55:02.738Z,6.20
2019-02-19T03:58:06.193Z,6.20
2019-02-19T04:01:09.640Z,6.20
2019-02-19T04:04:13.056Z,6.20
2019-02-19T04:07:16.485Z,6.20
2019-02-19T04:10:19.917Z,6.20
2019-02-19T04:13:23.332Z,6.20
2019-02-19T04:16:26.757Z,6.20
2019-02-19T04:19:30.192Z,6.20
2019-02-19T04:22:33.620Z,6.10
2019-02-19T04:25:37.044Z,6.00
2019-02-19T04:28:40.471Z,5.90
2019-02-19T04:31:43.888Z,5.80
2019-02-19T04:34:47.345Z,5.80
2019-02-19T04:37:50.836Z,5.70
2019-02-19T04:40:54.259Z,5.60
2019-02-19T04:43:57.670Z,5.60
2019-02-19T04:47:01.104Z,5.60
2019-02-19T04:50:06.665Z,5.50
2019-02-19T04:53:10.138Z,5.50
2019-02-19T04:56:13.576Z,5.50
2019-02-19T04:59:16.983Z,5.50
2019-02-19T05:02:20.420Z,5.50
2019-02-19T05:05:23.834Z,5.50
2019-02-19T05:08:27.273Z,5.40
2019-02-19T05:11:30.687Z,5.30
2019-02-19T05:14:34.134Z,5.30
2019-02-19T05:17:37.547Z,5.30
2019-02-19T05:20:46.833Z,5.30
2019-02-19T05:23:50.240Z,5.40
2019-02-19T05:26:53.685Z,5.30
2019-02-19T05:29:57.117Z,5.30
2019-02-19T05:33:00.574Z,5.30
2019-02-19T05:36:03.984Z,5.50
2019-02-19T05:39:07.495Z,5.60
2019-02-19T05:42:10.914Z,5.70
2019-02-19T05:45:14.340Z,5.80
2019-02-19T05:48:17.754Z,5.90
2019-02-19T05:51:21.197Z,5.90
2019-02-19T05:54:24.613Z,6.00
2019-02-19T05:57:28.034Z,6.10
2019-02-19T06:00:31.441Z,6.10
2019-02-19T06:03:34.867Z,6.00
2019-02-19T06:06:38.312Z,6.10
2019-02-19T06:09:41.866Z,6.10
2019-02-19T06:12:45.439Z,6.10
2019-02-19T06:15:48.862Z,6.10
2019-02-19T06:18:52.314Z,6.10
2019-02-19T06:21:55.727Z,6.10
2019-02-19T06:24:59.147Z,6.10
2019-02-19T06:28:02.566Z,6.10
2019-02-19T06:31:05.996Z,6.20
2019-02-19T06:34:09.404Z,6.20
2019-02-19T06:37:12.832Z,6.20
2019-02-19T06:40:24.511Z,6.30
2019-02-19T06:43:27.924Z,6.30
2019-02-19T06:46:31.379Z,6.30
2019-02-19T06:49:34.780Z,6.30
2019-02-19T06:52:38.220Z,6.20
2019-02-19T06:55:41.628Z,6.30
2019-02-19T06:58:45.063Z,6.20
2019-02-19T07:01:56.173Z,6.20
2019-02-19T07:04:59.857Z,6.20
2019-02-19T07:08:03.363Z,6.10
2019-02-19T07:11:06.814Z,6.20
2019-02-19T07:14:10.232Z,6.20
2019-02-19T07:17:15.636Z,6.20
2019-02-19T07:20:18.813Z,6.30
2019-02-19T07:23:22.260Z,6.30
2019-02-19T07:26:25.748Z,6.30
2019-02-19T07:29:29.183Z,6.40
2019-02-19T07:32:32.634Z,6.40
2019-02-19T07:35:36.044Z,6.40
2019-02-19T07:38:39.508Z,6.50
2019-02-19T07:41:42.918Z,6.50
2019-02-19T07:44:46.373Z,6.50
2019-02-19T07:47:49.786Z,6.50
2019-02-19T07:50:53.227Z,6.50
2019-02-19T07:53:56.647Z,6.50
2019-02-19T07:57:00.085Z,6.60
2019-02-19T08:00:04.310Z,6.60
2019-02-19T08:03:07.719Z,6.60
2019-02-19T08:06:11.168Z,6.60
2019-02-19T08:09:14.579Z,6.50
2019-02-19T08:12:18.026Z,6.50
2019-02-19T08:15:21.428Z,6.50
2019-02-19T08:18:25.297Z,6.50
2019-02-19T08:21:28.852Z,6.50
2019-02-19T08:24:32.295Z,6.50
2019-02-19T08:27:35.703Z,6.60
2019-02-19T08:30:39.144Z,6.60
2019-02-19T08:33:42.556Z,6.60
2019-02-19T08:36:46.007Z,6.70
2019-02-19T08:39:49.428Z,6.80
2019-02-19T08:42:52.871Z,6.80
2019-02-19T08:45:56.273Z,7.00
2019-02-19T08:48:59.716Z,7.00
2019-02-19T08:52:03.136Z,7.10
2019-02-19T08:55:07.454Z,7.20
2019-02-19T08:58:10.895Z,7.20
2019-02-19T09:01:14.304Z,7.30
2019-02-19T09:04:17.732Z,7.30
2019-02-19T09:07:21.140Z,7.40
2019-02-19T09:10:24.583Z,7.40
2019-02-19T09:13:28.004Z,7.50
2019-02-19T09:16:31.464Z,7.50
2019-02-19T09:19:34.892Z,7.50
2019-02-19T09:22:38.388Z,7.50
2019-02-19T09:25:41.840Z,7.50
2019-02-19T09:28:45.248Z,7.40
2019-02-19T09:31:48.684Z,7.50
2019-02-19T09:34:52.739Z,7.50
2019-02-19T09:37:56.219Z,7.50
2019-02-19T09:40:59.644Z,7.40
2019-02-19T09:44:03.080Z,7.40
2019-02-19T09:47:06.539Z,7.30
2019-02-19T09:50:10.648Z,7.40
2019-02-19T09:53:14.078Z,7.60
2019-02-19T09:56:17.516Z,7.70
2019-02-19T09:59:20.945Z,7.80
2019-02-19T10:02:24.380Z,8.00
2019-02-19T10:05:27.798Z,8.20
2019-02-19T10:08:31.243Z,8.30
2019-02-19T10:11:34.657Z,8.60
2019-02-19T10:14:38.093Z,8.80
2019-02-19T10:17:41.504Z,8.80
2019-02-19T10:20:44.956Z,8.70
2019-02-19T10:23:48.368Z,8.70
2019-02-19T10:26:51.800Z,8.70
2019-02-19T10:29:55.260Z,8.80
2019-02-19T10:32:58.676Z,8.90
2019-02-19T10:36:02.130Z,9.10
2019-02-19T10:39:08.258Z,9.40
2019-02-19T10:42:11.708Z,9.60
2019-02-19T10:45:17.738Z,9.80
2019-02-19T10:48:21.191Z,10.00
2019-02-19T10:51:24.604Z,10.10
2019-02-19T10:54:28.048Z,10.30
2019-02-19T10:57:31.464Z,10.30
2019-02-19T11:00:34.901Z,10.40
2019-02-19T11:03:38.316Z,10.10
2019-02-19T11:06:41.780Z,10.00
2019-02-19T11:09:45.193Z,10.00
2019-02-19T11:12:48.643Z,10.00
2019-02-19T11:15:52.065Z,10.10
2019-02-19T11:18:55.512Z,10.10
2019-02-19T11:21:58.954Z,10.00
2019-02-19T11:25:02.383Z,10.10
2019-02-19T11:28:05.821Z,10.20
2019-02-19T11:31:09.245Z,9.80
2019-02-19T11:34:12.753Z,9.50
2019-02-19T11:37:16.192Z,9.40
2019-02-19T11:40:19.615Z,9.50
2019-02-19T11:43:23.040Z,9.70
2019-02-19T11:46:26.497Z,9.70
2019-02-19T11:49:29.908Z,9.70
2019-02-19T11:52:36.369Z,9.60
2019-02-19T11:55:39.825Z,9.60
2019-02-19T11:58:43.224Z,9.60
2019-02-19T12:01:46.862Z,9.50
2019-02-19T12:04:50.274Z,9.60
2019-02-19T12:07:53.724Z,9.70
2019-02-19T12:10:57.129Z,9.70
2019-02-19T12:14:00.569Z,9.80
2019-02-19T12:17:03.985Z,9.80
2019-02-19T12:20:10.497Z,9.80
2019-02-19T12:23:13.917Z,9.70
2019-02-19T12:26:17.397Z,9.60
2019-02-19T12:29:20.865Z,9.70
2019-02-19T12:32:24.301Z,9.70
2019-02-19T12:35:27.748Z,9.70
2019-02-19T12:38:31.164Z,9.70
2019-02-19T12:41:34.591Z,9.70
2019-02-19T12:44:38.009Z,9.80
2019-02-19T12:47:41.472Z,9.80
2019-02-19T12:50:44.871Z,9.90
2019-02-19T12:53:48.312Z,10.10
2019-02-19T12:56:51.751Z,10.20
2019-02-19T12:59:56.764Z,10.20
2019-02-19T13:03:00.281Z,10.20
2019-02-19T13:06:03.725Z,10.20
2019-02-19T13:09:07.143Z,10.30
2019-02-19T13:12:10.703Z,10.50
2019-02-19T13:15:19.040Z,10.50
2019-02-19T13:18:22.456Z,10.60
2019-02-19T13:21:25.907Z,10.70
2019-02-19T13:24:32.151Z,10.60
2019-02-19T13:27:37.499Z,10.60
2019-02-19T13:30:40.943Z,10.70
2019-02-19T13:33:44.435Z,10.90
2019-02-19T13:36:47.844Z,11.00
2019-02-19T13:39:52.149Z,11.00
2019-02-19T13:42:55.599Z,10.80
2019-02-19T13:45:59.028Z,10.60
2019-02-19T13:49:02.459Z,10.50
2019-02-19T13:52:07.544Z,10.40
2019-02-19T13:55:12.599Z,10.20
2019-02-19T13:58:16.031Z,10.10
2019-02-19T14:01:19.449Z,10.00
2019-02-19T14:04:22.880Z,10.10
2019-02-19T14:07:26.296Z,10.10
2019-02-19T14:10:29.733Z,10.10
2019-02-19T14:13:33.168Z,10.10
2019-02-19T14:16:38.216Z,10.30
2019-02-19T14:19:43.295Z,10.30
2019-02-19T14:22:48.368Z,10.30
2019-02-19T14:25:56.161Z,10.30
2019-02-19T14:29:01.228Z,10.20
2019-02-19T14:32:18.417Z,10.10
2019-02-19T14:35:26.432Z,10.10
2019-02-19T14:38:47.785Z,10.10
2019-02-19T14:41:55.807Z,10.20
2019-02-19T14:45:09.752Z,10.20
2019-02-19T14:48:31.029Z,10.20
2019-02-19T14:51:52.648Z,10.20
2019-02-19T14:55:09.965Z,10.20
2019-02-19T14:58:31.255Z,10.20
2019-02-19T15:01:51.659Z,10.20
2019-02-19T15:05:02.716Z,10.10
2019-02-19T15:08:13.763Z,10.10
2019-02-19T15:11:21.771Z,10.10
2019-02-19T15:14:26.850Z,10.00
2019-02-19T15:17:40.464Z,9.90
2019-02-19T15:20:45.536Z,9.80
2019-02-19T15:24:07.231Z,9.80
2019-02-19T15:27:12.295Z,9.70
2019-02-19T15:30:35.646Z,9.50
2019-02-19T15:33:43.629Z,9.50
2019-02-19T15:37:04.936Z,9.40
2019-02-19T15:40:12.756Z,9.30
2019-02-19T15:43:29.343Z,9.20
2019-02-19T15:46:49.623Z,9.10
2019-02-19T15:49:54.697Z,9.00
2019-02-19T15:53:14.836Z,8.90
2019-02-19T15:56:32.823Z,8.90
2019-02-19T15:59:55.872Z,8.90
2019-02-19T16:03:00.939Z,8.80
2019-02-19T16:06:08.638Z,8.80
2019-02-19T16:09:45.342Z,8.80
2019-02-19T16:13:07.117Z,8.70
2019-02-19T16:16:12.176Z,8.70
2019-02-19T16:19:33.673Z,8.60
2019-02-19T16:22:44.818Z,8.60
2019-02-19T16:26:06.200Z,8.60
2019-02-19T16:29:26.575Z,8.50
2019-02-19T16:32:31.628Z,8.50
2019-02-19T16:35:36.722Z,8.40
2019-02-19T16:38:44.683Z,8.40
2019-02-19T16:41:49.752Z,8.40
2019-02-19T16:45:00.780Z,8.40
2019-02-19T16:48:05.861Z,8.30
2019-02-19T16:51:10.913Z,8.30
2019-02-19T16:54:18.695Z,8.30
2019-02-19T16:57:35.695Z,8.30
2019-02-19T17:00:40.768Z,8.30
2019-02-19T17:03:45.832Z,8.30
2019-02-19T17:06:59.701Z,8.20
2019-02-19T17:10:04.760Z,8.20
2019-02-19T17:13:12.759Z,8.20
2019-02-19T17:16:17.813Z,8.30
2019-02-19T17:19:31.817Z,8.30
2019-02-19T17:22:46.200Z,8.30
2019-02-19T17:25:51.244Z,8.30
2019-02-19T17:28:59.322Z,8.40
2019-02-19T17:32:13.136Z,8.30
2019-02-19T17:35:27.338Z,8.30
2019-02-19T17:38:32.383Z,8.20
2019-02-19T17:41:41.352Z,8.30
2019-02-19T17:45:03.015Z,8.30
2019-02-19T17:48:14.266Z,8.20
2019-02-19T17:51:22.026Z,8.20
2019-02-19T17:54:27.088Z,8.10
2019-02-19T17:57:48.749Z,8.20
2019-02-19T18:00:53.820Z,8.20
2019-02-19T18:04:07.844Z,8.20
2019-02-19T18:07:21.708Z,8.20
2019-02-19T18:10:29.529Z,8.20
2019-02-19T18:13:37.547Z,8.20
2019-02-19T18:16:42.611Z,8.20
2019-02-19T18:19:46.033Z,8.20
2019-02-19T18:23:08.781Z,8.20
2019-02-19T18:26:12.216Z,8.10
2019-02-19T18:29:15.625Z,8.20
2019-02-19T18:32:19.088Z,8.20
2019-02-19T18:35:22.578Z,8.10
2019-02-19T18:38:26.020Z,8.10
2019-02-19T18:41:29.426Z,8.10
2019-02-19T18:44:32.854Z,8.10
2019-02-19T18:47:36.275Z,8.00
2019-02-19T18:50:39.704Z,8.00
2019-02-19T18:53:43.114Z,8.00
2019-02-19T18:56:46.553Z,8.00
2019-02-19T18:59:49.959Z,8.00
2019-02-19T19:02:53.387Z,8.00
2019-02-19T19:05:56.820Z,8.00
2019-02-19T19:09:00.232Z,8.00
2019-02-19T19:12:03.657Z,8.00
2019-02-19T19:15:09.333Z,8.00
2019-02-19T19:18:12.740Z,8.00
2019-02-19T19:21:16.168Z,7.90
2019-02-19T19:24:19.600Z,7.90
2019-02-19T19:27:23.031Z,7.90
2019-02-19T19:30:26.444Z,8.00
2019-02-19T19:33:29.873Z,7.90
2019-02-19T19:36:33.295Z,7.90
2019-02-19T19:39:36.741Z,7.90
2019-02-19T19:42:40.150Z,7.90
2019-02-19T19:45:43.595Z,7.90
2019-02-19T19:48:47.009Z,7.90
2019-02-19T19:51:50.452Z,8.00
2019-02-19T19:54:53.888Z,7.90
2019-02-19T19:57:57.333Z,7.90
2019-02-19T20:01:00.740Z,7.80
2019-02-19T20:04:04.248Z,7.80
2019-02-19T20:07:07.650Z,7.70
2019-02-19T20:10:12.828Z,7.70
2019-02-19T20:13:16.232Z,7.60
2019-02-19T20:16:19.680Z,7.60
2019-02-19T20:19:23.103Z,7.50
2019-02-19T20:22:26.558Z,7.40
2019-02-19T20:25:29.972Z,7.30
2019-02-19T20:28:33.405Z,7.20
2019-02-19T20:31:36.808Z,7.20
2019-02-19T20:34:40.244Z,7.20
2019-02-19T20:37:43.648Z,7.10
2019-02-19T20:40:47.084Z,7.00
2019-02-19T20:43:50.515Z,7.00
2019-02-19T20:46:53.928Z,7.00
2019-02-19T20:49:57.411Z,6.90
2019-02-19T20:53:00.878Z,6.80
2019-02-19T20:56:04.383Z,6.80
2019-02-19T20:59:07.797Z,6.70
2019-02-19T21:02:11.216Z,6.70
2019-02-19T21:05:14.666Z,6.70
2019-02-19T21:08:18.101Z,6.70
2019-02-19T21:11:21.525Z,6.60
2019-02-19T21:14:24.970Z,6.60
2019-02-19T21:17:28.391Z,6.60
2019-02-19T21:20:38.597Z,6.60
2019-02-19T21:23:42.039Z,6.50
2019-02-19T21:26:45.459Z,6.40
2019-02-19T21:29:48.884Z,6.40
2019-02-19T21:32:52.305Z,6.30
2019-02-19T21:35:57.882Z,6.30
2019-02-19T21:39:00.898Z,6.20
2019-02-19T21:42:04.340Z,6.20
2019-02-19T21:45:12.987Z,6.20
2019-02-19T21:48:16.415Z,6.20
2019-02-19T21:51:19.881Z,6.30
2019-02-19T21:54:23.320Z,6.30
2019-02-19T21:57:26.736Z,6.30
2019-02-19T22:00:30.189Z,6.30
2019-02-19T22:03:33.623Z,6.40
2019-02-19T22:06:37.044Z,6.40
2019-02-19T22:09:40.489Z,6.50
2019-02-19T22:12:43.901Z,6.40
2019-02-19T22:15:47.352Z,6.40
2019-02-19T22:18:50.768Z,6.40
2019-02-19T22:22:03.186Z,6.40
2019-02-19T22:25:00.998Z,6.40
2019-02-19T22:28:04.439Z,6.40
2019-02-19T22:31:07.851Z,6.40
2019-02-19T22:34:11.298Z,6.20
2019-02-19T22:37:14.848Z,6.20
2019-02-19T22:40:18.383Z,6.30
2019-02-19T22:43:21.985Z,6.40
2019-02-19T22:46:25.500Z,6.30
2019-02-19T22:49:28.911Z,6.40
2019-02-19T22:52:32.353Z,6.50
2019-02-19T22:55:37.401Z,6.40
2019-02-19T22:58:40.835Z,6.40
2019-02-19T23:01:47.223Z,6.50
2019-02-19T23:04:50.728Z,6.50
2019-02-19T23:07:54.151Z,6.50
2019-02-19T23:10:57.584Z,6.50
2019-02-19T23:14:00.996Z,6.40
2019-02-19T23:17:04.535Z,6.40
2019-02-19T23:20:07.944Z,6.30
2019-02-19T23:23:11.414Z,6.30
2019-02-19T23:26:14.836Z,6.30
2019-02-19T23:29:18.285Z,6.30
2019-02-19T23:32:21.700Z,6.20
2019-02-19T23:35:35.680Z,6.20
2019-02-19T23:38:39.093Z,6.20
2019-02-19T23:41:42.532Z,6.30
2019-02-19T23:44:45.936Z,6.30
2019-02-19T23:47:49.401Z,6.30
2019-02-19T23:50:52.817Z,6.20
2019-02-19T23:53:56.249Z,6.20
2019-02-19T23:56:59.696Z,6.20
